Time;durP1;ratioP1;P1;durP2;ratioP2;P2;SDS_P1;SDS_P2;PMS_P1;PMS_P2;Temp;Humidity;BMP_temperature;BMP_pressure;BME280_temperature;BME280_humidity;BME280_pressure;Samples;Min_cycle;Max_cycle;Signal;HPM_P1;HPM_P2
2023/03/10 00:01:17;;;;;;;17.50;3.33;;;;;;;;;;5111615;28;20285;-77
2023/03/10 00:03:44;;;;;;;24.47;3.67;;;;;;;;;;5112166;28;20713;-78
2023/03/10 00:06:13;;;;;;;19.73;4.30;;;;;;;;;;5111928;28;20759;-78
2023/03/10 00:08:40;;;;;;;21.90;4.20;;;;;;;;;;5111825;28;20278;-76
2023/03/10 00:11:07;;;;;;;22.37;3.80;;;;;;;;;;5111513;28;20288;-77
2023/03/10 00:13:36;;;;;;;21.53;4.27;;;;;;;;;;5111422;28;20672;-78
2023/03/10 00:16:03;;;;;;;24.90;4.37;;;;;;;;;;5111558;28;20194;-76
2023/03/10 00:18:30;;;;;;;28.13;4.97;;;;;;;;;;5111870;28;20540;-77
2023/03/10 00:20:58;;;;;;;23.30;4.33;;;;;;;;;;5111642;28;20284;-77
2023/03/10 00:23:25;;;;;;;25.27;3.83;;;;;;;;;;5111295;28;20239;-76
2023/03/10 00:25:56;;;;;;;24.33;4.57;;;;;;;;;;5111287;28;20625;-77
2023/03/10 00:28:23;;;;;;;25.87;4.83;;;;;;;;;;5111156;28;20209;-76
2023/03/10 00:31:02;;;;;;;22.83;4.73;;;;;;;;;;5111858;28;20190;-76
2023/03/10 00:33:30;;;;;;;23.67;4.50;;;;;;;;;;5111829;28;20225;-77
2023/03/10 00:36:04;;;;;;;24.80;4.83;;;;;;;;;;5111355;28;20297;-77
2023/03/10 00:38:32;;;;;;;22.47;4.90;;;;;;;;;;5111532;28;20250;-76
2023/03/10 00:40:59;;;;;;;23.93;4.50;;;;;;;;;;5111457;28;20292;-76
2023/03/10 00:43:27;;;;;;;25.37;4.07;;;;;;;;;;5111223;28;20236;-77
2023/03/10 00:45:54;;;;;;;16.50;3.90;;;;;;;;;;5111127;28;20225;-77
2023/03/10 00:48:23;;;;;;;16.57;3.00;;;;;;;;;;5111663;28;20232;-75
2023/03/10 00:50:50;;;;;;;15.33;3.00;;;;;;;;;;5111370;28;20228;-77
2023/03/10 00:53:17;;;;;;;19.90;2.80;;;;;;;;;;5111468;28;20296;-76
2023/03/10 00:55:44;;;;;;;13.50;2.63;;;;;;;;;;5111091;28;20292;-77
2023/03/10 00:58:11;;;;;;;14.50;3.00;;;;;;;;;;5115412;28;20240;-77
2023/03/10 01:00:39;;;;;;;13.00;2.67;;;;;;;;;;5115190;28;20722;-76
2023/03/10 01:03:06;;;;;;;15.10;3.00;;;;;;;;;;5115375;28;20257;-77
2023/03/10 01:05:34;;;;;;;15.17;3.00;;;;;;;;;;5115718;28;20273;-76
2023/03/10 01:08:02;;;;;;;16.07;3.10;;;;;;;;;;5115043;28;20669;-74
2023/03/10 01:10:29;;;;;;;14.10;2.87;;;;;;;;;;5114732;28;20745;-76
2023/03/10 01:12:56;;;;;;;20.13;3.80;;;;;;;;;;5115191;28;20286;-76
2023/03/10 01:15:23;;;;;;;16.87;3.50;;;;;;;;;;5115133;27;20229;-76
2023/03/10 01:17:50;;;;;;;16.77;2.97;;;;;;;;;;5115025;27;20236;-76
2023/03/10 01:20:18;;;;;;;16.30;3.33;;;;;;;;;;5114842;28;20229;-76
2023/03/10 01:22:47;;;;;;;14.43;2.60;;;;;;;;;;5114974;28;20771;-76
2023/03/10 01:25:15;;;;;;;15.07;2.47;;;;;;;;;;5114689;28;20239;-75
2023/03/10 01:27:42;;;;;;;14.23;2.77;;;;;;;;;;5115398;28;20240;-76
2023/03/10 01:30:10;;;;;;;15.83;3.03;;;;;;;;;;5114710;28;20280;-75
2023/03/10 01:32:37;;;;;;;11.90;2.30;;;;;;;;;;5114970;28;20233;-77
2023/03/10 01:35:05;;;;;;;9.50;2.00;;;;;;;;;;5114487;28;20201;-76
2023/03/10 01:37:32;;;;;;;7.23;1.90;;;;;;;;;;5114891;28;20198;-76
2023/03/10 01:40:03;;;;;;;13.63;2.43;;;;;;;;;;5113890;28;20217;-76
2023/03/10 01:42:30;;;;;;;13.97;2.50;;;;;;;;;;5114828;28;20232;-75
2023/03/10 01:45:05;;;;;;;15.77;2.37;;;;;;;;;;5114396;28;20309;-76
2023/03/10 01:47:32;;;;;;;8.30;1.97;;;;;;;;;;5114161;28;20235;-76
2023/03/10 01:50:00;;;;;;;9.20;2.10;;;;;;;;;;5114579;28;20293;-75
2023/03/10 01:52:29;;;;;;;7.10;1.57;;;;;;;;;;5114787;28;20363;-77
2023/03/10 01:54:59;;;;;;;7.50;1.40;;;;;;;;;;5114194;28;20236;-75
2023/03/10 01:57:30;;;;;;;12.63;1.67;;;;;;;;;;5114296;28;20291;-75
2023/03/10 01:59:58;;;;;;;9.03;1.70;;;;;;;;;;5114409;28;20197;-76
2023/03/10 02:02:26;;;;;;;12.47;1.70;;;;;;;;;;5114529;28;20256;-76
2023/03/10 02:04:54;;;;;;;13.70;2.10;;;;;;;;;;5114165;28;20202;-76
2023/03/10 02:07:24;;;;;;;10.90;2.13;;;;;;;;;;5113527;28;20226;-75
2023/03/10 02:09:52;;;;;;;11.90;1.90;;;;;;;;;;5113973;28;20693;-75
2023/03/10 02:12:19;;;;;;;9.53;1.60;;;;;;;;;;5113649;28;20237;-76
2023/03/10 02:14:49;;;;;;;12.20;1.67;;;;;;;;;;5114354;28;20217;-75
2023/03/10 02:17:18;;;;;;;6.97;1.50;;;;;;;;;;5113769;28;20250;-75
2023/03/10 02:19:51;;;;;;;6.23;1.30;;;;;;;;;;5113712;28;20232;-76
2023/03/10 02:22:18;;;;;;;6.90;1.40;;;;;;;;;;5113422;28;20777;-76
2023/03/10 02:24:47;;;;;;;6.97;0.97;;;;;;;;;;5113161;28;20229;-74
2023/03/10 02:27:17;;;;;;;6.43;1.10;;;;;;;;;;5104862;28;20292;-75
2023/03/10 02:29:46;;;;;;;4.67;1.30;;;;;;;;;;5093699;28;20581;-78
2023/03/10 02:32:14;;;;;;;4.53;1.20;;;;;;;;;;5093045;28;20206;-76
2023/03/10 02:34:41;;;;;;;8.73;1.10;;;;;;;;;;5092765;28;20724;-77
2023/03/10 02:37:18;;;;;;;7.87;1.77;;;;;;;;;;5092740;28;20277;-75
2023/03/10 02:39:45;;;;;;;5.00;1.17;;;;;;;;;;5093222;28;20666;-77
2023/03/10 02:42:12;;;;;;;6.53;1.40;;;;;;;;;;5093313;28;20313;-78
2023/03/10 02:44:41;;;;;;;5.67;1.30;;;;;;;;;;5092867;28;20742;-77
2023/03/10 02:47:08;;;;;;;5.23;1.07;;;;;;;;;;5093165;28;20237;-75
2023/03/10 02:49:36;;;;;;;5.27;0.87;;;;;;;;;;5092999;28;20685;-77
2023/03/10 02:52:05;;;;;;;4.57;1.10;;;;;;;;;;5092827;28;20225;-78
2023/03/10 02:54:32;;;;;;;3.90;0.90;;;;;;;;;;5092935;28;20297;-77
2023/03/10 02:57:00;;;;;;;4.70;1.00;;;;;;;;;;5093322;28;20280;-76
2023/03/10 02:59:27;;;;;;;5.43;1.23;;;;;;;;;;5092587;28;20322;-77
2023/03/10 03:01:55;;;;;;;6.67;1.10;;;;;;;;;;5092750;28;20289;-76
2023/03/10 03:04:23;;;;;;;9.07;1.47;;;;;;;;;;5092640;28;20277;-77
2023/03/10 03:06:50;;;;;;;6.00;1.10;;;;;;;;;;5092225;28;20226;-77
2023/03/10 03:09:17;;;;;;;6.13;1.00;;;;;;;;;;5092817;28;20285;-78
2023/03/10 03:11:44;;;;;;;3.97;0.97;;;;;;;;;;5094309;28;20682;-76
2023/03/10 03:14:12;;;;;;;4.07;1.00;;;;;;;;;;5112813;28;20202;-77
2023/03/10 03:16:39;;;;;;;5.07;0.93;;;;;;;;;;5112920;28;20233;-77
2023/03/10 03:19:07;;;;;;;4.30;1.00;;;;;;;;;;5112155;28;20317;-76
2023/03/10 03:21:34;;;;;;;3.97;0.90;;;;;;;;;;5112415;28;20240;-75
2023/03/10 03:24:02;;;;;;;3.23;0.80;;;;;;;;;;5112772;28;20329;-76
2023/03/10 03:26:29;;;;;;;7.43;0.97;;;;;;;;;;5112677;28;20221;-76
2023/03/10 03:28:56;;;;;;;5.60;0.80;;;;;;;;;;5112308;28;20697;-77
2023/03/10 03:31:24;;;;;;;1.20;0.50;;;;;;;;;;5112423;27;20198;-76
2023/03/10 03:33:51;;;;;;;4.27;1.10;;;;;;;;;;5112273;28;20225;-77
2023/03/10 03:36:20;;;;;;;5.13;0.93;;;;;;;;;;5112311;28;20225;-76
2023/03/10 03:38:47;;;;;;;3.70;0.80;;;;;;;;;;5112517;28;20225;-76
2023/03/10 03:41:14;;;;;;;3.83;0.70;;;;;;;;;;5112282;28;20291;-75
2023/03/10 03:43:42;;;;;;;4.33;0.87;;;;;;;;;;5111062;28;20257;-75
2023/03/10 03:46:09;;;;;;;1.87;0.50;;;;;;;;;;5111945;28;20265;-76
2023/03/10 03:48:37;;;;;;;3.00;0.80;;;;;;;;;;5112463;28;20745;-74
2023/03/10 03:51:04;;;;;;;4.17;0.80;;;;;;;;;;5111871;28;20198;-75
2023/03/10 03:53:33;;;;;;;1.50;0.53;;;;;;;;;;5111805;28;20917;-76
2023/03/10 03:56:01;;;;;;;1.60;0.43;;;;;;;;;;5112245;28;20224;-76
2023/03/10 03:58:28;;;;;;;2.00;0.50;;;;;;;;;;5112125;28;20742;-76
2023/03/10 04:00:55;;;;;;;3.53;0.60;;;;;;;;;;5111921;28;20649;-76
2023/03/10 04:03:22;;;;;;;1.80;0.40;;;;;;;;;;5111829;28;20316;-74
2023/03/10 04:05:49;;;;;;;2.33;0.60;;;;;;;;;;5111477;28;20251;-76
2023/03/10 04:08:16;;;;;;;2.23;0.60;;;;;;;;;;5112058;28;20280;-76
2023/03/10 04:10:50;;;;;;;3.77;0.70;;;;;;;;;;5111515;28;20292;-75
2023/03/10 04:13:17;;;;;;;2.20;0.53;;;;;;;;;;5111578;28;20237;-76
2023/03/10 04:15:44;;;;;;;1.20;0.40;;;;;;;;;;5111755;28;20674;-76
2023/03/10 04:18:11;;;;;;;1.20;0.40;;;;;;;;;;5111607;28;20208;-76
2023/03/10 04:20:39;;;;;;;3.47;0.73;;;;;;;;;;5111107;28;20222;-77
2023/03/10 04:23:06;;;;;;;3.33;0.70;;;;;;;;;;5111775;28;20224;-77
2023/03/10 04:25:33;;;;;;;2.67;0.70;;;;;;;;;;5111862;28;20228;-77
2023/03/10 04:28:02;;;;;;;2.83;0.53;;;;;;;;;;5111912;28;20297;-76
2023/03/10 04:30:29;;;;;;;2.97;0.53;;;;;;;;;;5110958;28;20221;-75
2023/03/10 04:32:58;;;;;;;2.60;0.57;;;;;;;;;;5112028;28;20229;-77
2023/03/10 04:35:25;;;;;;;2.90;0.60;;;;;;;;;;5111232;28;20215;-76
2023/03/10 04:37:52;;;;;;;3.57;0.70;;;;;;;;;;5111468;28;20274;-76
2023/03/10 04:40:20;;;;;;;4.07;0.80;;;;;;;;;;5111428;28;20242;-77
2023/03/10 04:42:47;;;;;;;3.90;0.70;;;;;;;;;;5111596;28;20221;-76
2023/03/10 04:45:16;;;;;;;3.47;0.77;;;;;;;;;;5111342;28;20306;-77
2023/03/10 04:47:43;;;;;;;1.90;0.70;;;;;;;;;;5110807;28;20236;-76
2023/03/10 04:50:11;;;;;;;2.53;0.70;;;;;;;;;;5111469;28;20747;-76
2023/03/10 04:52:38;;;;;;;4.63;0.80;;;;;;;;;;5111373;28;20283;-75
2023/03/10 04:55:06;;;;;;;2.93;0.80;;;;;;;;;;5111453;28;20288;-77
2023/03/10 04:57:33;;;;;;;4.20;1.00;;;;;;;;;;5111877;28;20664;-76
2023/03/10 05:00:00;;;;;;;2.37;0.80;;;;;;;;;;5111601;28;20269;-76
2023/03/10 05:02:29;;;;;;;3.20;0.80;;;;;;;;;;5111470;28;20232;-76
2023/03/10 05:04:57;;;;;;;5.13;0.90;;;;;;;;;;5111220;28;20320;-76
2023/03/10 05:07:24;;;;;;;4.27;0.70;;;;;;;;;;5111239;28;20231;-77
2023/03/10 05:09:51;;;;;;;2.40;0.73;;;;;;;;;;5111678;28;20288;-76
2023/03/10 05:12:18;;;;;;;3.63;0.73;;;;;;;;;;5111379;28;20587;-77
2023/03/10 05:14:45;;;;;;;4.13;1.03;;;;;;;;;;5111389;28;20226;-76
2023/03/10 05:17:13;;;;;;;4.67;0.97;;;;;;;;;;5110843;28;20317;-75
2023/03/10 05:19:42;;;;;;;5.03;0.97;;;;;;;;;;5111572;28;20289;-77
2023/03/10 05:22:10;;;;;;;7.40;1.50;;;;;;;;;;5111356;28;20202;-76
2023/03/10 05:24:37;;;;;;;7.33;1.63;;;;;;;;;;5110849;28;20225;-76
2023/03/10 05:27:07;;;;;;;6.40;1.07;;;;;;;;;;5111189;28;20219;-77
2023/03/10 05:29:34;;;;;;;5.67;1.10;;;;;;;;;;5111187;28;20263;-76
2023/03/10 05:32:01;;;;;;;9.23;1.50;;;;;;;;;;5110672;28;20291;-76
2023/03/10 05:34:28;;;;;;;8.23;1.43;;;;;;;;;;5111381;28;20289;-76
2023/03/10 05:36:57;;;;;;;8.13;1.50;;;;;;;;;;5111068;28;20229;-76
2023/03/10 05:39:24;;;;;;;7.07;1.20;;;;;;;;;;5110834;28;20261;-76
2023/03/10 05:41:51;;;;;;;6.60;1.53;;;;;;;;;;5110277;28;20236;-77
2023/03/10 05:44:18;;;;;;;6.70;1.83;;;;;;;;;;5114372;28;20317;-76
2023/03/10 05:46:45;;;;;;;8.27;1.83;;;;;;;;;;5113812;28;20324;-76
2023/03/10 05:49:13;;;;;;;5.17;1.60;;;;;;;;;;5114709;28;20291;-76
2023/03/10 05:51:40;;;;;;;5.83;1.10;;;;;;;;;;5114418;28;20289;-76
2023/03/10 05:54:08;;;;;;;8.40;1.70;;;;;;;;;;5114454;28;20380;-75
2023/03/10 05:56:36;;;;;;;6.17;1.53;;;;;;;;;;5114133;28;20195;-76
2023/03/10 05:59:03;;;;;;;8.33;1.80;;;;;;;;;;5114310;28;20293;-76
2023/03/10 06:01:30;;;;;;;5.73;1.37;;;;;;;;;;5114067;27;20207;-75
2023/03/10 06:03:57;;;;;;;8.23;1.50;;;;;;;;;;5114720;28;20286;-75
2023/03/10 06:06:25;;;;;;;5.23;1.37;;;;;;;;;;5114371;28;20286;-76
2023/03/10 06:08:52;;;;;;;8.40;1.73;;;;;;;;;;5114055;28;20285;-75
2023/03/10 06:11:20;;;;;;;8.63;2.03;;;;;;;;;;5114109;28;20229;-76
2023/03/10 06:13:48;;;;;;;10.53;1.47;;;;;;;;;;5113798;28;20842;-75
2023/03/10 06:16:15;;;;;;;8.07;1.90;;;;;;;;;;5113961;28;20253;-76
2023/03/10 06:18:42;;;;;;;9.47;1.73;;;;;;;;;;5113611;28;20241;-76
2023/03/10 06:21:11;;;;;;;6.07;1.60;;;;;;;;;;5114204;28;20229;-74
2023/03/10 06:23:38;;;;;;;6.87;1.70;;;;;;;;;;5113685;28;20241;-76
2023/03/10 06:26:07;;;;;;;8.50;1.67;;;;;;;;;;5113585;28;20293;-76
2023/03/10 06:28:36;;;;;;;5.57;1.60;;;;;;;;;;5113729;27;20292;-76
2023/03/10 06:31:04;;;;;;;9.70;2.07;;;;;;;;;;5113895;28;20276;-76
2023/03/10 06:33:32;;;;;;;10.50;2.10;;;;;;;;;;5112110;28;20205;-76
2023/03/10 06:35:59;;;;;;;10.70;1.90;;;;;;;;;;5093066;28;20297;-76
2023/03/10 06:38:26;;;;;;;8.53;2.03;;;;;;;;;;5100041;28;20222;-75
2023/03/10 06:40:53;;;;;;;7.97;1.30;;;;;;;;;;5109599;28;20671;-75
2023/03/10 06:43:21;;;;;;;10.63;2.10;;;;;;;;;;5110923;28;20265;-78
2023/03/10 06:45:50;;;;;;;8.93;2.20;;;;;;;;;;5112084;28;20316;-77
2023/03/10 06:48:17;;;;;;;9.70;2.37;;;;;;;;;;5112014;28;20297;-79
2023/03/10 06:50:46;;;;;;;10.17;2.30;;;;;;;;;;5112269;28;20235;-77
2023/03/10 06:53:14;;;;;;;9.17;1.73;;;;;;;;;;5112655;28;20203;-77
2023/03/10 06:55:41;;;;;;;9.97;2.10;;;;;;;;;;5111980;28;20217;-77
2023/03/10 06:58:08;;;;;;;10.07;2.10;;;;;;;;;;5103134;28;20222;-78
2023/03/10 07:00:37;;;;;;;11.47;2.03;;;;;;;;;;5105300;27;20284;-77
2023/03/10 07:03:06;;;;;;;11.03;2.10;;;;;;;;;;5106247;28;20203;-77
2023/03/10 07:05:33;;;;;;;16.87;2.30;;;;;;;;;;5101501;28;20317;-76
2023/03/10 07:08:00;;;;;;;10.40;1.80;;;;;;;;;;5108985;28;20292;-76
2023/03/10 07:10:28;;;;;;;12.00;2.30;;;;;;;;;;5112492;28;20209;-76
2023/03/10 07:12:57;;;;;;;12.27;2.37;;;;;;;;;;5112599;28;20230;-76
2023/03/10 07:15:25;;;;;;;12.17;2.53;;;;;;;;;;5112616;28;20247;-75
2023/03/10 07:17:54;;;;;;;11.87;2.63;;;;;;;;;;5112789;28;20244;-77
2023/03/10 07:20:23;;;;;;;9.07;2.13;;;;;;;;;;5113026;28;20202;-76
2023/03/10 07:22:51;;;;;;;14.37;2.50;;;;;;;;;;5112357;28;20198;-76
2023/03/10 07:25:18;;;;;;;11.47;2.37;;;;;;;;;;5112385;28;20650;-75
2023/03/10 07:27:45;;;;;;;9.03;1.73;;;;;;;;;;5111867;28;20289;-75
2023/03/10 07:30:13;;;;;;;13.57;2.17;;;;;;;;;;5110670;28;20226;-77
2023/03/10 07:32:40;;;;;;;7.00;2.07;;;;;;;;;;5112131;28;20285;-76
2023/03/10 07:35:08;;;;;;;12.87;2.20;;;;;;;;;;5110256;28;20239;-76
2023/03/10 07:37:39;;;;;;;14.47;2.33;;;;;;;;;;5106140;28;20288;-76
2023/03/10 07:40:07;;;;;;;15.70;2.13;;;;;;;;;;5111573;28;20289;-75
2023/03/10 07:42:34;;;;;;;10.37;2.37;;;;;;;;;;5122636;27;20205;-75
2023/03/10 07:45:02;;;;;;;12.93;2.23;;;;;;;;;;5112790;27;20689;-75
2023/03/10 07:47:29;;;;;;;10.90;2.33;;;;;;;;;;5111813;28;20190;-75
2023/03/10 07:49:56;;;;;;;13.70;2.90;;;;;;;;;;5111788;28;20677;-76
2023/03/10 07:52:23;;;;;;;12.13;2.23;;;;;;;;;;5112163;28;20232;-76
2023/03/10 07:54:52;;;;;;;13.53;1.97;;;;;;;;;;5111489;28;20291;-76
2023/03/10 07:57:19;;;;;;;13.50;2.13;;;;;;;;;;5111158;28;20232;-77
2023/03/10 07:59:46;;;;;;;12.33;2.23;;;;;;;;;;5123909;27;20707;-77
2023/03/10 08:02:14;;;;;;;9.17;2.07;;;;;;;;;;5132642;27;20217;-76
2023/03/10 08:04:42;;;;;;;15.37;2.23;;;;;;;;;;5127031;27;20225;-76
2023/03/10 08:07:09;;;;;;;11.07;2.27;;;;;;;;;;5111778;28;20221;-76
2023/03/10 08:09:36;;;;;;;10.83;1.90;;;;;;;;;;5111604;28;20269;-76
2023/03/10 08:12:05;;;;;;;8.37;2.10;;;;;;;;;;5108865;28;20641;-77
2023/03/10 08:14:33;;;;;;;13.07;2.23;;;;;;;;;;5111337;27;20623;-76
2023/03/10 08:17:00;;;;;;;11.90;2.17;;;;;;;;;;5111880;28;20326;-76
2023/03/10 08:19:28;;;;;;;11.43;2.17;;;;;;;;;;5111744;28;20229;-75
2023/03/10 08:21:56;;;;;;;9.60;2.03;;;;;;;;;;5111931;28;20283;-75
2023/03/10 08:24:23;;;;;;;11.70;2.53;;;;;;;;;;5111559;28;20249;-76
2023/03/10 08:26:50;;;;;;;10.70;1.63;;;;;;;;;;5110872;28;20291;-77
2023/03/10 08:29:19;;;;;;;10.90;2.17;;;;;;;;;;5111542;28;20627;-76
2023/03/10 08:31:47;;;;;;;9.33;2.03;;;;;;;;;;5111037;28;20217;-77
2023/03/10 08:34:14;;;;;;;7.83;1.70;;;;;;;;;;5111377;28;20237;-77
2023/03/10 08:36:42;;;;;;;9.80;1.80;;;;;;;;;;5111262;28;20293;-77
2023/03/10 08:39:09;;;;;;;7.53;1.70;;;;;;;;;;5108580;28;20650;-77
2023/03/10 08:41:38;;;;;;;11.00;2.40;;;;;;;;;;5105502;28;20196;-76
2023/03/10 08:44:06;;;;;;;14.43;2.33;;;;;;;;;;5090915;28;20229;-76
2023/03/10 08:46:34;;;;;;;12.00;1.70;;;;;;;;;;5095776;28;20269;-76
2023/03/10 08:49:02;;;;;;;7.80;1.80;;;;;;;;;;5105759;28;20236;-77
2023/03/10 08:51:29;;;;;;;13.87;2.27;;;;;;;;;;5111358;28;20197;-76
2023/03/10 08:53:57;;;;;;;8.60;1.70;;;;;;;;;;5111413;28;20240;-77
2023/03/10 08:56:24;;;;;;;16.57;2.60;;;;;;;;;;5110979;28;20287;-76
2023/03/10 08:58:55;;;;;;;8.30;1.87;;;;;;;;;;5111550;28;20279;-77
2023/03/10 09:01:23;;;;;;;9.80;1.93;;;;;;;;;;5111483;28;20204;-77
2023/03/10 09:03:51;;;;;;;14.87;2.20;;;;;;;;;;5110961;28;20225;-77
2023/03/10 09:06:19;;;;;;;10.80;2.00;;;;;;;;;;5110494;28;20284;-77
2023/03/10 09:08:47;;;;;;;9.93;2.03;;;;;;;;;;5111304;28;20203;-77
2023/03/10 09:11:16;;;;;;;11.67;2.10;;;;;;;;;;5111248;28;20251;-77
2023/03/10 09:13:43;;;;;;;9.77;2.00;;;;;;;;;;5111171;28;20285;-77
2023/03/10 09:16:12;;;;;;;8.27;1.70;;;;;;;;;;5111161;28;20201;-76
2023/03/10 09:18:39;;;;;;;12.00;1.80;;;;;;;;;;5114058;28;20688;-77
2023/03/10 09:21:08;;;;;;;8.73;1.60;;;;;;;;;;5115064;28;20193;-77
2023/03/10 09:23:35;;;;;;;8.97;2.00;;;;;;;;;;5114863;28;20194;-77
2023/03/10 09:26:02;;;;;;;10.13;2.17;;;;;;;;;;5114404;28;20282;-78
2023/03/10 09:28:30;;;;;;;8.83;1.40;;;;;;;;;;5115201;28;20289;-76
2023/03/10 09:30:57;;;;;;;8.90;1.93;;;;;;;;;;5114964;28;20197;-77
2023/03/10 09:33:24;;;;;;;11.17;2.10;;;;;;;;;;5114480;28;20302;-77
2023/03/10 09:35:52;;;;;;;9.03;1.70;;;;;;;;;;5114030;28;20690;-77
2023/03/10 09:38:20;;;;;;;8.40;1.50;;;;;;;;;;5114020;28;20228;-77
2023/03/10 09:40:52;;;;;;;10.43;1.63;;;;;;;;;;5114991;28;20190;-78
2023/03/10 09:43:19;;;;;;;6.33;1.50;;;;;;;;;;5114211;28;20198;-77
2023/03/10 09:45:50;;;;;;;6.57;1.83;;;;;;;;;;5114301;28;20261;-77
2023/03/10 09:48:31;;;;;;;6.87;1.60;;;;;;;;;;5114115;28;20601;-77
2023/03/10 09:51:00;;;;;;;10.07;1.77;;;;;;;;;;5114441;28;20198;-77
2023/03/10 09:53:40;;;;;;;7.77;1.50;;;;;;;;;;5098816;28;20201;-77
2023/03/10 09:56:11;;;;;;;6.37;1.40;;;;;;;;;;5114309;28;20293;-77
2023/03/10 09:58:40;;;;;;;5.53;1.30;;;;;;;;;;5114172;28;20659;-78
2023/03/10 10:01:14;;;;;;;6.03;1.20;;;;;;;;;;5113709;28;20288;-77
2023/03/10 10:03:43;;;;;;;2.73;1.13;;;;;;;;;;5113909;28;20215;-77
2023/03/10 10:06:15;;;;;;;6.57;1.43;;;;;;;;;;5113369;28;20324;-77
2023/03/10 10:08:45;;;;;;;6.00;1.27;;;;;;;;;;5114035;28;20201;-77
2023/03/10 10:11:14;;;;;;;5.97;1.27;;;;;;;;;;5106746;27;20343;-78
2023/03/10 10:13:42;;;;;;;6.07;1.43;;;;;;;;;;5109843;27;20736;-78
2023/03/10 10:16:17;;;;;;;5.60;1.20;;;;;;;;;;5093880;28;20190;-77
2023/03/10 10:18:48;;;;;;;7.53;1.50;;;;;;;;;;5092889;28;20728;-78
2023/03/10 10:21:19;;;;;;;4.50;1.23;;;;;;;;;;5093214;28;20230;-77
2023/03/10 10:23:50;;;;;;;7.80;1.53;;;;;;;;;;5098965;28;20629;-77
2023/03/10 10:26:18;;;;;;;7.30;1.23;;;;;;;;;;5107872;28;20282;-77
2023/03/10 10:28:48;;;;;;;5.20;1.30;;;;;;;;;;5113619;28;20214;-78
2023/03/10 10:31:16;;;;;;;7.87;1.30;;;;;;;;;;5111555;28;20766;-78
2023/03/10 10:33:52;;;;;;;6.37;1.50;;;;;;;;;;5113336;28;20264;-77
2023/03/10 10:36:20;;;;;;;5.70;1.50;;;;;;;;;;5111060;28;20206;-79
2023/03/10 10:38:51;;;;;;;5.53;1.50;;;;;;;;;;5112798;28;20217;-77
2023/03/10 10:41:20;;;;;;;3.90;1.40;;;;;;;;;;5113303;28;20229;-78
2023/03/10 10:43:47;;;;;;;6.70;1.63;;;;;;;;;;5113143;28;20198;-77
2023/03/10 10:46:16;;;;;;;7.63;1.67;;;;;;;;;;5113452;28;20261;-78
2023/03/10 10:48:44;;;;;;;4.97;1.33;;;;;;;;;;5113250;28;20690;-78
2023/03/10 10:51:20;;;;;;;6.33;1.10;;;;;;;;;;5112679;28;20244;-78
2023/03/10 10:53:47;;;;;;;6.27;1.13;;;;;;;;;;5113051;28;20235;-77
2023/03/10 10:56:17;;;;;;;5.27;1.33;;;;;;;;;;5112984;28;20670;-78
2023/03/10 10:58:45;;;;;;;6.70;1.10;;;;;;;;;;5113406;28;20261;-78
2023/03/10 11:01:13;;;;;;;5.53;1.27;;;;;;;;;;5113084;28;20201;-77
2023/03/10 11:03:41;;;;;;;3.17;1.10;;;;;;;;;;5113262;28;20277;-76
2023/03/10 11:06:24;;;;;;;4.13;1.07;;;;;;;;;;5112003;28;20324;-78
2023/03/10 11:08:52;;;;;;;5.50;1.30;;;;;;;;;;5111627;28;20193;-78
2023/03/10 11:11:24;;;;;;;6.50;1.43;;;;;;;;;;5096894;28;20285;-78
2023/03/10 11:13:58;;;;;;;6.77;1.10;;;;;;;;;;5104401;28;20266;-77
2023/03/10 11:16:29;;;;;;;5.33;1.30;;;;;;;;;;5111400;28;20225;-77
2023/03/10 11:18:58;;;;;;;5.67;1.17;;;;;;;;;;5108517;28;20213;-77
2023/03/10 11:21:27;;;;;;;4.53;0.90;;;;;;;;;;5111281;28;21096;-77
2023/03/10 11:23:58;;;;;;;6.43;1.00;;;;;;;;;;5111142;28;20273;-79
2023/03/10 11:26:34;;;;;;;9.93;1.37;;;;;;;;;;5111586;28;20313;-78
2023/03/10 11:29:05;;;;;;;3.90;0.90;;;;;;;;;;5108813;28;20274;-78
2023/03/10 11:31:37;;;;;;;5.10;1.27;;;;;;;;;;5111488;28;20284;-77
2023/03/10 11:34:13;;;;;;;3.93;1.20;;;;;;;;;;5110300;28;20193;-78
2023/03/10 11:36:44;;;;;;;6.13;1.40;;;;;;;;;;5109235;28;20270;-77
2023/03/10 11:39:15;;;;;;;5.37;1.23;;;;;;;;;;5111265;28;20281;-77
2023/03/10 11:41:46;;;;;;;4.70;1.10;;;;;;;;;;5110995;28;20190;-79
2023/03/10 11:44:18;;;;;;;5.87;1.23;;;;;;;;;;5110665;28;20638;-77
2023/03/10 11:46:50;;;;;;;6.10;1.40;;;;;;;;;;5110906;28;20268;-76
2023/03/10 11:49:23;;;;;;;5.87;1.63;;;;;;;;;;5108500;28;20276;-77
2023/03/10 11:51:51;;;;;;;4.37;1.57;;;;;;;;;;5110445;28;20236;-77
2023/03/10 11:54:20;;;;;;;8.30;1.30;;;;;;;;;;5111313;28;20237;-77
2023/03/10 11:56:49;;;;;;;5.30;1.30;;;;;;;;;;5111304;28;20281;-76
2023/03/10 11:59:19;;;;;;;6.80;1.60;;;;;;;;;;5109660;28;20233;-77
2023/03/10 12:01:48;;;;;;;6.83;1.40;;;;;;;;;;5110869;28;20281;-77
2023/03/10 12:04:17;;;;;;;6.33;1.50;;;;;;;;;;5109880;28;20218;-77
2023/03/10 12:06:46;;;;;;;6.17;1.40;;;;;;;;;;5110541;28;20316;-78
2023/03/10 12:09:18;;;;;;;5.87;1.30;;;;;;;;;;5106609;28;20243;-78
2023/03/10 12:11:45;;;;;;;6.87;1.60;;;;;;;;;;5108803;28;20288;-77
2023/03/10 12:14:14;;;;;;;6.27;1.33;;;;;;;;;;5111949;28;20646;-78
2023/03/10 12:16:42;;;;;;;9.57;1.50;;;;;;;;;;5111917;28;20725;-77
2023/03/10 12:19:09;;;;;;;8.37;1.43;;;;;;;;;;5110374;28;20229;-77
2023/03/10 12:21:36;;;;;;;7.83;1.57;;;;;;;;;;5109759;28;20285;-78
2023/03/10 12:24:04;;;;;;;8.43;1.30;;;;;;;;;;5110578;28;20717;-77
2023/03/10 12:26:56;;;;;;;8.33;1.40;;;;;;;;;;5107778;28;20668;-77
2023/03/10 12:29:31;;;;;;;5.63;1.47;;;;;;;;;;5105317;28;20197;-76
2023/03/10 12:31:59;;;;;;;5.77;1.30;;;;;;;;;;5107383;28;20225;-78
2023/03/10 12:34:28;;;;;;;4.87;1.10;;;;;;;;;;5106334;28;20317;-77
2023/03/10 12:36:55;;;;;;;6.43;1.17;;;;;;;;;;5100383;28;20206;-77
2023/03/10 12:39:26;;;;;;;5.43;1.57;;;;;;;;;;5090888;28;20194;-78
2023/03/10 12:41:54;;;;;;;6.00;1.43;;;;;;;;;;5096828;28;20217;-78
2023/03/10 12:44:42;;;;;;;4.37;1.40;;;;;;;;;;5107569;28;20280;-78
2023/03/10 12:47:17;;;;;;;3.90;1.53;;;;;;;;;;5111299;28;20225;-78
2023/03/10 12:49:48;;;;;;;8.77;1.40;;;;;;;;;;5107294;28;20225;-78
2023/03/10 12:52:23;;;;;;;7.67;1.53;;;;;;;;;;5111936;28;20228;-78
2023/03/10 12:54:53;;;;;;;8.20;1.50;;;;;;;;;;5115568;28;20188;-78
2023/03/10 12:57:23;;;;;;;5.70;1.40;;;;;;;;;;5114925;28;20729;-78
2023/03/10 12:59:56;;;;;;;5.63;1.13;;;;;;;;;;5114620;28;20194;-78
2023/03/10 13:02:27;;;;;;;4.03;1.10;;;;;;;;;;5094404;28;20259;-78
2023/03/10 13:04:59;;;;;;;4.57;1.20;;;;;;;;;;5101460;27;20225;-78
2023/03/10 13:07:28;;;;;;;11.70;1.40;;;;;;;;;;5114560;28;22036;-77
2023/03/10 13:09:56;;;;;;;7.63;1.57;;;;;;;;;;5113906;28;20221;-79
2023/03/10 13:12:27;;;;;;;5.60;0.97;;;;;;;;;;5114961;28;20230;-78
2023/03/10 13:14:56;;;;;;;8.30;1.40;;;;;;;;;;5115341;28;20558;-78
2023/03/10 13:17:25;;;;;;;6.17;1.20;;;;;;;;;;5113441;28;20829;-78
2023/03/10 13:20:00;;;;;;;6.37;1.50;;;;;;;;;;5113223;28;20867;-78
2023/03/10 13:22:28;;;;;;;6.63;1.30;;;;;;;;;;5107115;28;20292;-79
2023/03/10 13:24:59;;;;;;;6.63;1.10;;;;;;;;;;5114575;28;20285;-78
2023/03/10 13:27:29;;;;;;;8.13;1.40;;;;;;;;;;5114815;28;20336;-79
2023/03/10 13:29:58;;;;;;;11.90;1.77;;;;;;;;;;5114409;28;20204;-79
2023/03/10 13:32:27;;;;;;;7.70;1.67;;;;;;;;;;5105911;28;20281;-78
2023/03/10 13:34:55;;;;;;;8.00;1.60;;;;;;;;;;5111148;28;20226;-78
2023/03/10 13:37:22;;;;;;;8.67;1.60;;;;;;;;;;5114567;28;20194;-77
2023/03/10 13:39:50;;;;;;;7.07;1.50;;;;;;;;;;5112681;27;20230;-77
2023/03/10 13:42:25;;;;;;;6.77;1.50;;;;;;;;;;5114092;28;20284;-77
2023/03/10 13:44:53;;;;;;;6.73;1.30;;;;;;;;;;5113753;28;20839;-77
2023/03/10 13:47:22;;;;;;;6.30;1.43;;;;;;;;;;5113080;28;20711;-78
2023/03/10 13:49:51;;;;;;;6.90;1.30;;;;;;;;;;5112639;28;20600;-78
2023/03/10 13:52:20;;;;;;;7.77;1.33;;;;;;;;;;5113474;28;20247;-78
2023/03/10 13:54:48;;;;;;;6.97;1.43;;;;;;;;;;5112454;28;20221;-78
2023/03/10 13:57:18;;;;;;;6.73;1.40;;;;;;;;;;5129159;28;20257;-78
2023/03/10 13:59:45;;;;;;;8.63;1.63;;;;;;;;;;5128698;27;20292;-78
2023/03/10 14:02:16;;;;;;;6.50;1.20;;;;;;;;;;5112287;28;20297;-78
2023/03/10 14:04:44;;;;;;;4.80;1.07;;;;;;;;;;5111627;28;20674;-78
2023/03/10 14:07:15;;;;;;;5.37;0.80;;;;;;;;;;5112834;28;20320;-77
2023/03/10 14:09:43;;;;;;;4.90;0.70;;;;;;;;;;5112235;28;20208;-78
2023/03/10 14:12:11;;;;;;;4.53;1.30;;;;;;;;;;5112772;28;20940;-78
2023/03/10 14:14:38;;;;;;;2.80;1.00;;;;;;;;;;5132210;28;20641;-77
2023/03/10 14:17:06;;;;;;;5.30;1.70;;;;;;;;;;5124778;27;20262;-77
2023/03/10 14:19:38;;;;;;;6.13;1.10;;;;;;;;;;5113047;28;20217;-78
2023/03/10 14:22:05;;;;;;;2.73;0.70;;;;;;;;;;5112259;28;20715;-78
2023/03/10 14:24:34;;;;;;;5.50;1.10;;;;;;;;;;5112804;28;20280;-78
2023/03/10 14:27:01;;;;;;;3.80;1.07;;;;;;;;;;5112267;28;20316;-77
2023/03/10 14:29:29;;;;;;;4.10;0.80;;;;;;;;;;5112265;28;20225;-77
2023/03/10 14:31:56;;;;;;;5.03;1.00;;;;;;;;;;5111527;28;20200;-77
2023/03/10 14:34:23;;;;;;;3.20;0.90;;;;;;;;;;5111139;28;20246;-76
2023/03/10 14:36:51;;;;;;;6.73;1.23;;;;;;;;;;5111834;28;20244;-77
2023/03/10 14:39:18;;;;;;;5.57;0.90;;;;;;;;;;5111400;28;20226;-77
2023/03/10 14:41:47;;;;;;;2.43;1.00;;;;;;;;;;5111074;28;20223;-78
2023/03/10 14:44:15;;;;;;;5.57;0.90;;;;;;;;;;5111264;28;20201;-78
2023/03/10 14:46:44;;;;;;;8.47;0.97;;;;;;;;;;5074894;27;1142716;-78